createdAt,value
2023-03-29T00:00:49.550Z,100.00
2023-03-29T00:07:05.084Z,100.00
2023-03-29T00:09:33.025Z,100.00
2023-03-29T00:12:01.487Z,100.00
2023-03-29T00:14:30.358Z,100.00
2023-03-29T00:16:57.558Z,100.00
2023-03-29T00:19:23.939Z,100.00
2023-03-29T00:21:50.322Z,100.00
2023-03-29T00:24:16.654Z,100.00
2023-03-29T00:26:43.024Z,100.00
2023-03-29T00:29:09.393Z,100.00
2023-03-29T00:31:35.891Z,100.00
2023-03-29T00:34:02.316Z,100.00
2023-03-29T00:36:28.744Z,100.00
2023-03-29T00:38:56.536Z,100.00
2023-03-29T00:41:22.861Z,100.00
2023-03-29T00:44:00.613Z,100.00
2023-03-29T00:46:29.702Z,100.00
2023-03-29T00:49:06.992Z,100.00
2023-03-29T00:51:37.253Z,100.00
2023-03-29T00:54:06.829Z,100.00
2023-03-29T00:56:38.465Z,100.00
2023-03-29T00:59:18.604Z,100.00
2023-03-29T01:01:56.840Z,100.00
2023-03-29T01:04:32.835Z,100.00
2023-03-29T01:07:05.038Z,100.00
2023-03-29T01:09:35.391Z,100.00
2023-03-29T01:12:08.863Z,100.00
2023-03-29T01:14:47.968Z,100.00
2023-03-29T01:17:15.904Z,100.00
2023-03-29T01:19:50.023Z,100.00
2023-03-29T01:22:26.035Z,100.00
2023-03-29T01:25:05.165Z,100.00
2023-03-29T01:27:43.634Z,100.00
2023-03-29T01:30:15.989Z,100.00
2023-03-29T01:32:50.389Z,100.00
2023-03-29T01:35:24.836Z,100.00
2023-03-29T01:38:09.733Z,100.00
2023-03-29T01:40:36.249Z,100.00
2023-03-29T01:43:11.450Z,100.00
2023-03-29T01:45:49.677Z,100.00
2023-03-29T01:48:18.759Z,100.00
2023-03-29T01:50:55.434Z,100.00
2023-03-29T01:53:30.945Z,100.00
2023-03-29T01:56:02.299Z,100.00
2023-03-29T01:58:33.927Z,100.00
2023-03-29T02:01:05.598Z,100.00
2023-03-29T02:03:34.141Z,100.00
2023-03-29T02:06:03.032Z,100.00
2023-03-29T02:08:29.629Z,100.00
2023-03-29T02:10:56.079Z,100.00
2023-03-29T02:13:22.471Z,100.00
2023-03-29T02:15:49.107Z,100.00
2023-03-29T02:18:17.620Z,100.00
2023-03-29T02:20:49.689Z,100.00
2023-03-29T02:23:34.001Z,100.00
2023-03-29T02:26:02.001Z,100.00
2023-03-29T02:28:30.076Z,100.00
2023-03-29T02:31:09.307Z,100.00
2023-03-29T02:33:52.988Z,100.00
2023-03-29T02:36:28.095Z,100.00
2023-03-29T02:38:55.890Z,100.00
2023-03-29T02:41:23.700Z,100.00
2023-03-29T02:43:51.071Z,100.00
2023-03-29T02:46:18.613Z,100.00
2023-03-29T02:48:46.810Z,100.00
2023-03-29T02:51:20.275Z,100.00
2023-03-29T02:53:56.262Z,100.00
2023-03-29T02:56:23.195Z,100.00
2023-03-29T02:58:49.749Z,100.00
2023-03-29T03:01:18.330Z,100.00
2023-03-29T03:03:45.129Z,100.00
2023-03-29T03:06:13.427Z,100.00
2023-03-29T03:08:40.015Z,100.00
2023-03-29T03:11:07.045Z,100.00
2023-03-29T03:13:33.407Z,100.00
2023-03-29T03:16:01.135Z,100.00
2023-03-29T03:18:27.702Z,100.00
2023-03-29T03:20:55.365Z,100.00
2023-03-29T03:23:21.667Z,100.00
2023-03-29T03:25:49.091Z,100.00
2023-03-29T03:28:15.585Z,100.00
2023-03-29T03:30:42.070Z,100.00
2023-03-29T03:33:08.993Z,100.00
2023-03-29T03:35:35.621Z,100.00
2023-03-29T03:38:01.986Z,100.00
2023-03-29T03:40:28.514Z,100.00
2023-03-29T03:42:54.876Z,100.00
2023-03-29T03:45:21.565Z,100.00
2023-03-29T03:47:48.043Z,100.00
2023-03-29T03:50:14.517Z,100.00
2023-03-29T03:52:40.891Z,100.00
2023-03-29T03:55:08.186Z,100.00
2023-03-29T03:57:37.390Z,100.00
2023-03-29T04:00:19.164Z,100.00
2023-03-29T04:02:47.166Z,100.00
2023-03-29T04:05:14.240Z,100.00
2023-03-29T04:07:41.146Z,100.00
2023-03-29T04:10:09.143Z,100.00
2023-03-29T04:12:36.007Z,100.00
2023-03-29T04:15:03.761Z,100.00
2023-03-29T04:17:30.380Z,100.00
2023-03-29T04:19:57.520Z,100.00
2023-03-29T04:22:27.893Z,100.00
2023-03-29T04:24:54.217Z,100.00
2023-03-29T04:27:20.620Z,100.00
2023-03-29T04:29:47.586Z,100.00
2023-03-29T04:32:13.939Z,100.00
2023-03-29T04:34:40.432Z,100.00
2023-03-29T04:37:10.611Z,100.00
2023-03-29T04:39:37.814Z,100.00
2023-03-29T04:42:05.148Z,100.00
2023-03-29T04:44:34.850Z,100.00
2023-03-29T04:47:01.387Z,100.00
2023-03-29T04:49:27.810Z,100.00
2023-03-29T04:51:54.450Z,100.00
2023-03-29T04:54:21.254Z,100.00
2023-03-29T04:56:47.669Z,100.00
2023-03-29T04:59:14.046Z,100.00
2023-03-29T05:01:40.428Z,100.00
2023-03-29T05:04:06.833Z,100.00
2023-03-29T05:06:33.177Z,100.00
2023-03-29T05:09:01.104Z,100.00
2023-03-29T05:11:27.623Z,100.00
2023-03-29T05:13:57.046Z,100.00
2023-03-29T05:16:24.520Z,100.00
2023-03-29T05:18:51.616Z,100.00
2023-03-29T05:21:18.358Z,100.00
2023-03-29T05:23:44.848Z,100.00
2023-03-29T05:26:14.484Z,100.00
2023-03-29T05:28:41.758Z,100.00
2023-03-29T05:31:08.339Z,100.00
2023-03-29T05:33:35.392Z,100.00
2023-03-29T05:36:05.895Z,100.00
2023-03-29T05:38:34.947Z,100.00
2023-03-29T05:41:01.364Z,100.00
2023-03-29T05:43:27.870Z,100.00
2023-03-29T05:45:55.642Z,100.00
2023-03-29T05:48:23.670Z,100.00
2023-03-29T05:50:52.134Z,100.00
2023-03-29T05:53:21.160Z,100.00
2023-03-29T05:55:47.726Z,100.00
2023-03-29T05:58:15.567Z,100.00
2023-03-29T06:00:42.745Z,100.00
2023-03-29T06:05:48.348Z,100.00
2023-03-29T06:08:16.798Z,100.00
2023-03-29T06:10:43.603Z,100.00
2023-03-29T06:13:10.795Z,100.00
2023-03-29T06:15:37.479Z,100.00
2023-03-29T06:18:04.560Z,100.00
2023-03-29T06:20:31.673Z,100.00
2023-03-29T06:22:58.430Z,100.00
2023-03-29T06:25:24.917Z,100.00
2023-03-29T06:27:52.162Z,100.00
2023-03-29T06:30:19.232Z,100.00
2023-03-29T06:32:46.169Z,100.00
2023-03-29T06:35:12.541Z,100.00
2023-03-29T06:37:49.343Z,100.00
2023-03-29T06:40:21.185Z,100.00
2023-03-29T06:42:48.388Z,100.00
2023-03-29T06:45:14.962Z,100.00
2023-03-29T06:47:41.940Z,100.00
2023-03-29T06:50:09.186Z,100.00
2023-03-29T06:52:35.690Z,100.00
2023-03-29T06:55:02.902Z,100.00
2023-03-29T06:57:29.242Z,100.00
2023-03-29T06:59:55.683Z,100.00
2023-03-29T07:02:22.584Z,100.00
2023-03-29T07:08:02.131Z,100.00
2023-03-29T07:10:48.884Z,100.00
2023-03-29T07:13:15.546Z,100.00
2023-03-29T07:15:43.531Z,100.00
2023-03-29T07:18:10.484Z,100.00
2023-03-29T07:20:38.767Z,100.00
2023-03-29T07:23:06.363Z,100.00
2023-03-29T07:25:33.844Z,100.00
2023-03-29T07:28:00.253Z,100.00
2023-03-29T07:30:31.670Z,100.00
2023-03-29T07:32:59.384Z,100.00
2023-03-29T07:35:26.985Z,100.00
2023-03-29T07:37:55.473Z,100.00
2023-03-29T07:40:23.515Z,100.00
2023-03-29T07:42:54.898Z,100.00
2023-03-29T07:45:26.630Z,100.00
2023-03-29T07:47:56.222Z,98.97
2023-03-29T07:50:23.282Z,98.21
2023-03-29T07:52:50.039Z,96.59
2023-03-29T07:55:16.934Z,100.00
2023-03-29T07:57:44.173Z,98.65
2023-03-29T08:00:16.301Z,99.97
2023-03-29T08:02:44.658Z,98.01
2023-03-29T08:05:17.534Z,97.58
2023-03-29T08:07:47.640Z,98.04
2023-03-29T08:10:16.930Z,98.19
2023-03-29T08:12:45.273Z,95.93
2023-03-29T08:15:13.093Z,95.77
2023-03-29T08:17:41.204Z,93.89
2023-03-29T08:20:10.863Z,94.40
2023-03-29T08:22:37.845Z,94.44
2023-03-29T08:25:05.495Z,93.45
2023-03-29T08:27:32.167Z,93.46
2023-03-29T08:29:58.518Z,93.31
2023-03-29T08:32:25.077Z,95.11
2023-03-29T08:34:51.638Z,96.20
2023-03-29T08:37:19.031Z,96.54
2023-03-29T08:39:45.881Z,93.02
2023-03-29T08:42:29.634Z,91.84
2023-03-29T08:45:26.568Z,92.22
2023-03-29T08:48:15.875Z,86.70
2023-03-29T08:50:57.130Z,90.75
2023-03-29T08:53:29.094Z,93.17
2023-03-29T08:55:58.888Z,93.88
2023-03-29T08:58:29.003Z,91.81
2023-03-29T09:00:58.201Z,91.74
2023-03-29T09:03:45.785Z,93.49
2023-03-29T09:06:12.812Z,90.20
2023-03-29T09:08:47.458Z,90.21
2023-03-29T09:11:23.040Z,93.33
2023-03-29T09:13:58.442Z,90.07
2023-03-29T09:16:52.120Z,92.45
2023-03-29T09:19:37.104Z,92.33
2023-03-29T09:22:06.329Z,91.89
2023-03-29T09:24:44.918Z,91.04
2023-03-29T09:27:23.834Z,90.14
2023-03-29T09:30:01.947Z,92.83
2023-03-29T09:32:32.866Z,91.36
2023-03-29T09:35:22.582Z,90.12
2023-03-29T09:37:51.463Z,90.47
2023-03-29T09:40:24.562Z,90.87
2023-03-29T09:42:54.034Z,89.54
2023-03-29T09:45:20.445Z,85.72
2023-03-29T09:47:55.481Z,88.19
2023-03-29T09:50:34.223Z,89.15
2023-03-29T09:53:01.314Z,87.37
2023-03-29T09:55:33.668Z,90.12
2023-03-29T09:58:02.064Z,86.48
2023-03-29T10:00:28.457Z,88.60
2023-03-29T10:02:58.738Z,86.87
2023-03-29T10:05:29.388Z,86.89
2023-03-29T10:07:59.700Z,87.87
2023-03-29T10:10:35.250Z,88.01
2023-03-29T10:13:06.900Z,88.36
2023-03-29T10:15:33.432Z,88.52
2023-03-29T10:18:03.498Z,87.89
2023-03-29T10:20:30.066Z,87.40
2023-03-29T10:22:58.794Z,87.38
2023-03-29T10:25:33.845Z,86.23
2023-03-29T10:28:08.213Z,84.09
2023-03-29T10:30:37.151Z,85.16
2023-03-29T10:33:03.960Z,85.44
2023-03-29T10:35:37.994Z,84.42
2023-03-29T10:38:09.850Z,81.55
2023-03-29T10:40:47.018Z,83.39
2023-03-29T10:43:19.082Z,84.22
2023-03-29T10:45:49.987Z,81.94
2023-03-29T10:48:17.759Z,82.65
2023-03-29T10:50:52.826Z,82.53
2023-03-29T10:53:30.282Z,79.92
2023-03-29T10:56:16.069Z,80.87
2023-03-29T10:59:00.277Z,78.62
2023-03-29T11:01:42.637Z,77.37
2023-03-29T11:04:33.062Z,77.49
2023-03-29T11:07:30.466Z,79.65
2023-03-29T11:10:30.734Z,82.59
2023-03-29T11:13:15.148Z,79.26
2023-03-29T11:16:12.662Z,77.43
2023-03-29T11:19:03.375Z,81.30
2023-03-29T11:21:59.683Z,78.38
2023-03-29T11:24:45.437Z,78.54
2023-03-29T11:27:14.493Z,81.76
2023-03-29T11:29:52.727Z,78.06
2023-03-29T11:32:31.354Z,81.04
2023-03-29T11:35:01.511Z,79.16
2023-03-29T11:37:37.248Z,77.76
2023-03-29T11:40:51.354Z,78.83
2023-03-29T11:43:32.727Z,76.44
2023-03-29T11:46:03.976Z,76.80
2023-03-29T11:48:46.049Z,76.55
2023-03-29T11:51:25.759Z,76.76
2023-03-29T11:54:11.073Z,78.13
2023-03-29T11:56:47.631Z,78.04
2023-03-29T11:59:55.790Z,78.16
2023-03-29T12:02:32.464Z,79.12
2023-03-29T12:05:05.416Z,78.69
2023-03-29T12:07:37.114Z,81.35
2023-03-29T12:10:14.436Z,80.07
2023-03-29T12:12:46.448Z,79.19
2023-03-29T12:15:20.270Z,79.61
2023-03-29T12:18:02.442Z,78.22
2023-03-29T12:20:33.520Z,79.19
2023-03-29T12:23:00.644Z,77.97
2023-03-29T12:25:37.970Z,77.89
2023-03-29T12:28:18.066Z,78.67
2023-03-29T12:30:55.853Z,78.50
2023-03-29T12:33:50.483Z,79.60
2023-03-29T12:36:43.852Z,80.09
2023-03-29T12:39:19.097Z,80.05
2023-03-29T12:41:48.924Z,81.55
2023-03-29T12:44:17.458Z,78.46
2023-03-29T12:46:44.103Z,78.10
2023-03-29T12:49:21.226Z,78.23
2023-03-29T12:51:48.114Z,76.55
2023-03-29T12:54:19.679Z,76.06
2023-03-29T12:56:51.940Z,75.03
2023-03-29T12:59:27.417Z,73.80
2023-03-29T13:02:14.206Z,73.54
2023-03-29T13:04:46.935Z,73.89
2023-03-29T13:07:22.328Z,72.89
2023-03-29T13:09:52.101Z,74.50
2023-03-29T13:12:33.398Z,72.60
2023-03-29T13:15:02.464Z,72.07
2023-03-29T13:17:50.817Z,72.79
2023-03-29T13:20:29.392Z,73.07
2023-03-29T13:23:22.574Z,72.59
2023-03-29T13:26:00.752Z,72.54
2023-03-29T13:28:58.555Z,70.61
2023-03-29T13:31:56.079Z,67.89
2023-03-29T13:35:00.645Z,70.45
2023-03-29T13:37:53.972Z,68.57
2023-03-29T13:40:29.374Z,68.33
2023-03-29T13:43:08.606Z,66.80
2023-03-29T13:45:36.090Z,66.01
2023-03-29T13:48:24.787Z,67.10
2023-03-29T13:51:01.956Z,65.55
2023-03-29T13:53:33.691Z,65.49
2023-03-29T13:56:01.116Z,66.41
2023-03-29T13:58:37.919Z,65.98
2023-03-29T14:01:16.377Z,65.88
2023-03-29T14:03:46.182Z,66.06
2023-03-29T14:06:16.503Z,65.98
2023-03-29T14:08:44.392Z,65.86
2023-03-29T14:11:24.416Z,64.33
2023-03-29T14:14:06.756Z,64.75
2023-03-29T14:16:37.192Z,65.38
2023-03-29T14:19:07.525Z,66.23
2023-03-29T14:21:33.869Z,65.65
2023-03-29T14:24:01.897Z,65.53
2023-03-29T14:26:34.340Z,66.28
2023-03-29T14:29:02.339Z,65.83
2023-03-29T14:31:35.626Z,64.88
2023-03-29T14:34:11.214Z,64.87
2023-03-29T14:36:38.677Z,65.80
2023-03-29T14:39:12.871Z,65.78
2023-03-29T14:41:41.663Z,66.08
2023-03-29T14:44:08.276Z,68.04
2023-03-29T14:46:36.279Z,67.42
2023-03-29T14:49:03.731Z,67.08
2023-03-29T14:51:31.277Z,70.27
2023-03-29T14:54:00.209Z,68.45
2023-03-29T14:56:27.078Z,67.41
2023-03-29T14:58:56.903Z,66.32
2023-03-29T15:01:25.749Z,66.52
2023-03-29T15:04:11.372Z,67.74
2023-03-29T15:06:40.898Z,67.38
2023-03-29T15:09:15.808Z,67.11
2023-03-29T15:11:50.254Z,66.45
2023-03-29T15:14:19.092Z,68.17
2023-03-29T15:16:47.379Z,68.68
2023-03-29T15:19:19.644Z,70.03
2023-03-29T15:21:49.154Z,70.59
2023-03-29T15:24:31.858Z,71.21
2023-03-29T15:27:01.316Z,71.59
2023-03-29T15:29:46.175Z,70.04
2023-03-29T15:32:23.819Z,71.85
2023-03-29T15:35:09.208Z,72.38
2023-03-29T15:37:35.960Z,72.96
2023-03-29T15:40:09.601Z,72.86
2023-03-29T15:42:36.543Z,73.35
2023-03-29T15:45:06.136Z,73.93
2023-03-29T15:47:32.476Z,74.25
2023-03-29T15:49:58.852Z,74.94
2023-03-29T15:52:25.262Z,75.02
2023-03-29T15:54:51.867Z,74.86
2023-03-29T15:57:18.719Z,75.27
2023-03-29T15:59:45.341Z,75.70
2023-03-29T16:02:16.380Z,75.79
2023-03-29T16:04:43.459Z,76.77
2023-03-29T16:07:14.872Z,76.21
2023-03-29T16:09:42.027Z,76.25
2023-03-29T16:12:10.143Z,75.38
2023-03-29T16:14:36.745Z,76.44
2023-03-29T16:17:03.873Z,75.42
2023-03-29T16:19:31.200Z,76.17
2023-03-29T16:21:59.342Z,75.37
2023-03-29T16:24:28.384Z,76.54
2023-03-29T16:26:56.450Z,76.68
2023-03-29T16:29:24.581Z,75.52
2023-03-29T16:31:52.482Z,76.20
2023-03-29T16:34:19.971Z,77.39
2023-03-29T16:36:47.769Z,77.86
2023-03-29T16:39:14.736Z,78.31
2023-03-29T16:41:42.182Z,79.24
2023-03-29T16:44:13.855Z,80.54
2023-03-29T16:46:40.356Z,81.67
2023-03-29T16:49:07.870Z,82.54
2023-03-29T16:51:34.216Z,83.16
2023-03-29T16:54:00.659Z,84.34
2023-03-29T16:56:28.323Z,85.41
2023-03-29T16:58:54.744Z,86.64
2023-03-29T17:01:22.536Z,87.91
2023-03-29T17:03:48.922Z,88.87
2023-03-29T17:06:15.563Z,90.20
2023-03-29T17:08:42.370Z,89.98
2023-03-29T17:11:09.331Z,90.73
2023-03-29T17:13:37.231Z,90.96
2023-03-29T17:16:04.516Z,91.69
2023-03-29T17:18:31.237Z,92.31
2023-03-29T17:20:58.686Z,92.27
2023-03-29T17:23:25.851Z,92.66
2023-03-29T17:25:54.491Z,92.69
2023-03-29T17:28:20.934Z,92.21
2023-03-29T17:30:47.765Z,92.27
2023-03-29T17:33:14.324Z,93.30
2023-03-29T17:35:42.898Z,93.78
2023-03-29T17:38:09.234Z,92.83
2023-03-29T17:40:35.789Z,92.82
2023-03-29T17:43:02.196Z,93.82
2023-03-29T17:45:28.579Z,94.42
2023-03-29T17:47:55.022Z,94.17
2023-03-29T17:50:21.575Z,94.36
2023-03-29T17:52:47.969Z,93.77
2023-03-29T17:55:14.379Z,95.49
2023-03-29T17:57:41.735Z,95.04
2023-03-29T18:00:12.236Z,95.25
2023-03-29T18:02:39.928Z,94.58
2023-03-29T18:05:09.255Z,94.23
2023-03-29T18:07:36.570Z,95.23
2023-03-29T18:10:03.574Z,96.28
2023-03-29T18:12:30.324Z,96.33
2023-03-29T18:14:56.888Z,96.74
2023-03-29T18:17:24.477Z,96.38
2023-03-29T18:19:51.364Z,96.30
2023-03-29T18:22:18.511Z,96.24
2023-03-29T18:24:46.403Z,96.46
2023-03-29T18:27:13.038Z,95.67
2023-03-29T18:29:39.395Z,95.24
2023-03-29T18:32:06.014Z,95.17
2023-03-29T18:34:33.304Z,95.05
2023-03-29T18:36:59.838Z,96.04
2023-03-29T18:39:27.228Z,95.68
2023-03-29T18:41:53.625Z,95.87
2023-03-29T18:44:21.741Z,95.83
2023-03-29T18:46:48.321Z,96.20
2023-03-29T18:49:14.761Z,95.87
2023-03-29T18:51:42.106Z,95.26
2023-03-29T18:54:08.951Z,95.66
2023-03-29T18:56:36.000Z,95.86
2023-03-29T18:59:06.012Z,95.75
2023-03-29T19:01:33.080Z,96.22
2023-03-29T19:03:59.462Z,95.89
2023-03-29T19:06:26.048Z,96.02
2023-03-29T19:08:53.888Z,96.59
2023-03-29T19:11:20.322Z,96.39
2023-03-29T19:13:50.031Z,96.41
2023-03-29T19:16:17.297Z,97.48
2023-03-29T19:18:43.844Z,96.94
2023-03-29T19:21:10.546Z,97.30
2023-03-29T19:23:37.259Z,96.49
2023-03-29T19:26:05.866Z,96.51
2023-03-29T19:28:33.743Z,96.76
2023-03-29T19:31:01.993Z,96.18
2023-03-29T19:33:29.244Z,96.60
2023-03-29T19:35:56.198Z,97.20
2023-03-29T19:38:22.650Z,97.23
2023-03-29T19:40:50.812Z,98.02
2023-03-29T19:43:17.951Z,96.71
2023-03-29T19:45:48.397Z,97.21
2023-03-29T19:48:21.934Z,97.22
2023-03-29T19:50:49.238Z,97.83
2023-03-29T19:53:15.614Z,96.55
2023-03-29T19:55:42.647Z,96.87
2023-03-29T19:58:09.270Z,94.41
2023-03-29T20:00:38.586Z,94.55
2023-03-29T20:03:05.285Z,95.00
2023-03-29T20:05:31.904Z,95.18
2023-03-29T20:07:58.284Z,94.75
2023-03-29T20:10:24.605Z,94.00
2023-03-29T20:12:51.124Z,94.71
2023-03-29T20:15:17.852Z,92.79
2023-03-29T20:17:44.862Z,92.38
2023-03-29T20:20:13.594Z,92.62
2023-03-29T20:22:42.060Z,91.17
2023-03-29T20:25:09.377Z,91.09
2023-03-29T20:27:35.906Z,91.08
2023-03-29T20:30:03.604Z,90.81
2023-03-29T20:32:30.074Z,90.54
2023-03-29T20:34:56.489Z,91.11
2023-03-29T20:37:22.992Z,90.33
2023-03-29T20:39:49.684Z,91.38
2023-03-29T20:42:16.197Z,90.65
2023-03-29T20:44:50.246Z,90.41
2023-03-29T20:47:19.950Z,90.11
2023-03-29T20:49:46.337Z,90.54
2023-03-29T20:52:17.198Z,91.27
2023-03-29T20:54:45.044Z,91.41
2023-03-29T20:57:16.985Z,90.17
2023-03-29T20:59:44.269Z,90.93
2023-03-29T21:02:14.614Z,89.88
2023-03-29T21:04:41.926Z,89.44
2023-03-29T21:07:08.274Z,89.36
2023-03-29T21:09:35.992Z,88.38
2023-03-29T21:12:02.873Z,88.73
2023-03-29T21:14:30.260Z,88.77
2023-03-29T21:16:56.634Z,89.41
2023-03-29T21:19:24.169Z,89.45
2023-03-29T21:21:52.095Z,90.05
2023-03-29T21:24:19.006Z,91.59
2023-03-29T21:26:46.290Z,91.71
2023-03-29T21:29:13.085Z,92.32
2023-03-29T21:31:39.621Z,93.78
2023-03-29T21:34:05.992Z,93.12
2023-03-29T21:36:32.362Z,92.73
2023-03-29T21:38:58.649Z,92.99
2023-03-29T21:41:25.077Z,92.19
2023-03-29T21:43:51.429Z,94.58
2023-03-29T21:46:17.811Z,93.07
2023-03-29T21:48:44.164Z,92.75
2023-03-29T21:51:10.552Z,92.56
2023-03-29T21:53:36.974Z,91.11
2023-03-29T21:56:03.749Z,90.82
2023-03-29T21:58:30.250Z,90.61
2023-03-29T22:00:57.139Z,90.67
2023-03-29T22:03:23.721Z,90.67
2023-03-29T22:06:02.343Z,90.59
2023-03-29T22:08:29.503Z,90.98
2023-03-29T22:10:57.092Z,90.99
2023-03-29T22:13:28.450Z,91.14
2023-03-29T22:15:59.348Z,91.61
2023-03-29T22:18:28.055Z,92.12
2023-03-29T22:20:54.550Z,91.62
2023-03-29T22:23:20.911Z,91.49
2023-03-29T22:25:47.366Z,90.93
2023-03-29T22:28:14.288Z,92.22
2023-03-29T22:30:40.957Z,92.16
2023-03-29T22:33:07.413Z,92.08
2023-03-29T22:35:35.137Z,93.95
2023-03-29T22:38:01.618Z,94.66
2023-03-29T22:40:28.206Z,94.27
2023-03-29T22:42:54.491Z,95.13
2023-03-29T22:45:20.830Z,96.27
2023-03-29T22:47:47.214Z,96.67
2023-03-29T22:50:13.729Z,96.16
2023-03-29T22:52:40.293Z,96.38
2023-03-29T22:55:07.022Z,95.91
2023-03-29T22:57:33.365Z,95.39
2023-03-29T23:00:00.599Z,95.02
2023-03-29T23:02:26.946Z,94.86
2023-03-29T23:04:53.289Z,94.37
2023-03-29T23:07:19.621Z,95.21
2023-03-29T23:09:46.039Z,94.45
2023-03-29T23:12:12.368Z,93.65
2023-03-29T23:14:42.427Z,94.67
2023-03-29T23:17:10.141Z,94.44
2023-03-29T23:19:37.796Z,94.94
2023-03-29T23:22:04.134Z,94.85
2023-03-29T23:24:30.500Z,95.64
2023-03-29T23:26:57.466Z,96.28
2023-03-29T23:29:26.127Z,96.40
2023-03-29T23:31:53.684Z,96.60
2023-03-29T23:34:20.180Z,96.79
2023-03-29T23:36:46.540Z,95.80
2023-03-29T23:39:12.930Z,95.88
2023-03-29T23:41:40.037Z,94.11
2023-03-29T23:44:06.383Z,92.44
2023-03-29T23:46:32.764Z,91.35
2023-03-29T23:48:59.088Z,91.12
2023-03-29T23:51:28.133Z,89.56
2023-03-29T23:53:55.775Z,89.53
2023-03-29T23:56:22.819Z,88.97
2023-03-29T23:58:49.640Z,88.32
